ARG1206 SARC-SABE
Flight info
| Callsign | ARG1206 |
|---|---|
| Flight time | 1h 9m |
| Altitude | 38000 |
| Route | KILIP2M KILIP UL793 GUA UZ129 PAGON PAGON8Q |
| Aircraft | B737/M-SDE2E3FGHIRWXY/LB1 |
Departure
| Time | 2026-04-12 08:21 |
|---|---|
| Airport | Corrientes Airport (SARC) |
Arrival
| Time | 2026-04-12 09:30 |
|---|---|
| Airport | Aeroparque Jorge Newbery (SABE) |
| Time | Latitude | Longitude | Altitude | Speed | Heading |
|---|---|---|---|---|---|
| 2026-04-12 08:02 | -27.44852 | -58.75871 | 213 ft | 0 kts | 142° |
| 2026-04-12 08:12 | -27.44837 | -58.75882 | 213 ft | 4 kts | 162° |
| 2026-04-12 08:12 | -27.44811 | -58.75884 | 213 ft | 4 kts | 195° |
| 2026-04-12 08:12 | -27.44791 | -58.75878 | 213 ft | 0 kts | 187° |
| 2026-04-12 08:16 | -27.44805 | -58.75886 | 213 ft | 5 kts | 220° |
| 2026-04-12 08:16 | -27.44814 | -58.75941 | 213 ft | 9 kts | 277° |
| 2026-04-12 08:16 | -27.44803 | -58.76024 | 212 ft | 12 kts | 278° |
| 2026-04-12 08:17 | -27.44791 | -58.76132 | 211 ft | 15 kts | 278° |
| 2026-04-12 08:17 | -27.44757 | -58.76201 | 210 ft | 10 kts | 338° |
| 2026-04-12 08:17 | -27.44683 | -58.76201 | 210 ft | 12 kts | 7° |
| 2026-04-12 08:17 | -27.44579 | -58.76184 | 210 ft | 19 kts | 8° |
| 2026-04-12 08:18 | -27.44418 | -58.76159 | 211 ft | 27 kts | 7° |
| 2026-04-12 08:18 | -27.44210 | -58.76128 | 214 ft | 33 kts | 8° |
| 2026-04-12 08:18 | -27.43963 | -58.76089 | 213 ft | 38 kts | 7° |
| 2026-04-12 08:18 | -27.43742 | -58.76054 | 214 ft | 26 kts | 9° |
| 2026-04-12 08:19 | -27.43591 | -58.76029 | 211 ft | 19 kts | 5° |
| 2026-04-12 08:19 | -27.43519 | -58.76042 | 210 ft | 8 kts | 353° |
| 2026-04-12 08:19 | -27.43492 | -58.76025 | 210 ft | 2 kts | 97° |
| 2026-04-12 08:19 | -27.43511 | -58.76019 | 210 ft | 4 kts | 180° |
| 2026-04-12 08:20 | -27.43558 | -58.76025 | 211 ft | 13 kts | 188° |
| 2026-04-12 08:20 | -27.43897 | -58.76078 | 213 ft | 86 kts | 187° |
| 2026-04-12 08:20 | -27.44718 | -58.76204 | 214 ft | 149 kts | 187° |
| 2026-04-12 08:20 | -27.45811 | -58.76355 | 674 ft | 163 kts | 187° |
| 2026-04-12 08:21 | -27.46947 | -58.76441 | 1435 ft | 164 kts | 182° |
| 2026-04-12 08:21 | -27.48113 | -58.76479 | 2123 ft | 174 kts | 182° |
| 2026-04-12 08:21 | -27.49437 | -58.76525 | 2465 ft | 207 kts | 182° |
| 2026-04-12 08:21 | -27.50978 | -58.76580 | 2748 ft | 235 kts | 182° |
| 2026-04-12 08:22 | -27.52683 | -58.76648 | 3090 ft | 258 kts | 182° |
| 2026-04-12 08:22 | -27.54518 | -58.76724 | 3901 ft | 267 kts | 182° |
| 2026-04-12 08:22 | -27.56385 | -58.76801 | 4933 ft | 269 kts | 182° |
| 2026-04-12 08:22 | -27.58267 | -58.76880 | 5918 ft | 273 kts | 182° |
| 2026-04-12 08:23 | -27.60185 | -58.76961 | 6850 ft | 278 kts | 182° |
| 2026-04-12 08:23 | -27.62135 | -58.77044 | 7754 ft | 282 kts | 182° |
| 2026-04-12 08:23 | -27.64113 | -58.77127 | 8630 ft | 287 kts | 182° |
| 2026-04-12 08:23 | -27.66127 | -58.77210 | 9488 ft | 291 kts | 182° |
| 2026-04-12 08:24 | -27.68169 | -58.77294 | 10301 ft | 297 kts | 182° |
| 2026-04-12 08:24 | -27.70311 | -58.77382 | 10600 ft | 321 kts | 182° |
| 2026-04-12 08:24 | -27.72601 | -58.77476 | 11027 ft | 336 kts | 182° |
| 2026-04-12 08:24 | -27.74934 | -58.77571 | 11710 ft | 342 kts | 182° |
| 2026-04-12 08:25 | -27.77354 | -58.77671 | 12477 ft | 345 kts | 182° |
| 2026-04-12 08:25 | -27.79766 | -58.77770 | 13198 ft | 349 kts | 182° |
| 2026-04-12 08:25 | -27.82181 | -58.77869 | 13875 ft | 354 kts | 182° |
| 2026-04-12 08:25 | -27.84635 | -58.77969 | 14626 ft | 346 kts | 182° |
| 2026-04-12 08:26 | -27.87014 | -58.78067 | 15532 ft | 343 kts | 182° |
| 2026-04-12 08:26 | -27.89470 | -58.78168 | 15705 ft | 363 kts | 182° |
| 2026-04-12 08:26 | -27.92043 | -58.78275 | 16002 ft | 376 kts | 182° |
| 2026-04-12 08:26 | -27.94681 | -58.78384 | 16520 ft | 381 kts | 182° |
| 2026-04-12 08:27 | -27.97343 | -58.78493 | 17093 ft | 384 kts | 182° |
| 2026-04-12 08:27 | -28.00024 | -58.78604 | 17629 ft | 387 kts | 182° |
| 2026-04-12 08:27 | -28.02745 | -58.78716 | 18068 ft | 393 kts | 182° |
| 2026-04-12 08:27 | -28.05454 | -58.78828 | 18564 ft | 395 kts | 182° |
| 2026-04-12 08:28 | -28.08213 | -58.78942 | 19077 ft | 397 kts | 182° |
| 2026-04-12 08:28 | -28.10992 | -58.79057 | 19479 ft | 402 kts | 182° |
| 2026-04-12 08:28 | -28.13798 | -58.79173 | 19891 ft | 405 kts | 182° |
| 2026-04-12 08:28 | -28.16622 | -58.79290 | 20311 ft | 407 kts | 182° |
| 2026-04-12 08:29 | -28.19461 | -58.79408 | 20715 ft | 409 kts | 182° |
| 2026-04-12 08:29 | -28.22314 | -58.79526 | 21084 ft | 411 kts | 182° |
| 2026-04-12 08:29 | -28.25183 | -58.79645 | 21569 ft | 410 kts | 182° |
| 2026-04-12 08:29 | -28.28027 | -58.79763 | 22033 ft | 410 kts | 182° |
| 2026-04-12 08:30 | -28.30892 | -58.79882 | 22369 ft | 412 kts | 182° |
| 2026-04-12 08:30 | -28.33769 | -58.79998 | 22651 ft | 416 kts | 181° |
| 2026-04-12 08:30 | -28.36677 | -58.79950 | 22934 ft | 419 kts | 177° |
| 2026-04-12 08:30 | -28.39589 | -58.79735 | 23228 ft | 421 kts | 175° |
| 2026-04-12 08:31 | -28.42510 | -58.79458 | 23509 ft | 423 kts | 175° |
| 2026-04-12 08:31 | -28.45419 | -58.79174 | 23769 ft | 425 kts | 175° |
| 2026-04-12 08:31 | -28.48319 | -58.78902 | 24613 ft | 404 kts | 175° |
| 2026-04-12 08:31 | -28.50989 | -58.78666 | 26012 ft | 372 kts | 176° |
| 2026-04-12 08:32 | -28.53558 | -58.78448 | 26489 ft | 373 kts | 176° |
| 2026-04-12 08:32 | -28.56184 | -58.78234 | 26530 ft | 383 kts | 176° |
| 2026-04-12 08:32 | -28.58876 | -58.78018 | 26598 ft | 392 kts | 176° |
| 2026-04-12 08:32 | -28.61636 | -58.77800 | 26660 ft | 401 kts | 176° |
| 2026-04-12 08:33 | -28.64443 | -58.77578 | 26714 ft | 409 kts | 176° |
| 2026-04-12 08:33 | -28.67310 | -58.77352 | 26763 ft | 416 kts | 176° |
| 2026-04-12 08:33 | -28.70222 | -58.77122 | 26806 ft | 423 kts | 176° |
| 2026-04-12 08:33 | -28.73177 | -58.76888 | 26845 ft | 429 kts | 176° |
| 2026-04-12 08:34 | -28.76172 | -58.76651 | 26877 ft | 434 kts | 176° |
| 2026-04-12 08:34 | -28.79202 | -58.76411 | 26917 ft | 439 kts | 176° |
| 2026-04-12 08:34 | -28.81221 | -58.76251 | 26935 ft | 442 kts | 176° |
| 2026-04-12 08:34 | -28.84320 | -58.76005 | 26960 ft | 446 kts | 176° |
| 2026-04-12 08:35 | -28.87423 | -58.75758 | 26982 ft | 450 kts | 176° |
| 2026-04-12 08:35 | -28.90558 | -58.75509 | 27016 ft | 452 kts | 176° |
| 2026-04-12 08:35 | -28.93698 | -58.75260 | 27107 ft | 454 kts | 176° |
| 2026-04-12 08:35 | -28.96850 | -58.75009 | 27237 ft | 454 kts | 176° |
| 2026-04-12 08:36 | -29.00004 | -58.74758 | 27354 ft | 454 kts | 176° |
| 2026-04-12 08:36 | -29.03157 | -58.74507 | 27425 ft | 455 kts | 176° |
| 2026-04-12 08:36 | -29.06331 | -58.74254 | 27555 ft | 455 kts | 176° |
| 2026-04-12 08:36 | -29.09486 | -58.74002 | 27675 ft | 455 kts | 176° |
| 2026-04-12 08:37 | -29.12657 | -58.73749 | 27758 ft | 456 kts | 176° |
| 2026-04-12 08:37 | -29.15824 | -58.73496 | 27828 ft | 457 kts | 176° |
| 2026-04-12 08:37 | -29.18999 | -58.73243 | 27899 ft | 458 kts | 176° |
| 2026-04-12 08:37 | -29.22140 | -58.72992 | 27975 ft | 459 kts | 176° |
| 2026-04-12 08:38 | -29.28516 | -58.72481 | 28118 ft | 460 kts | 176° |
| 2026-04-12 08:38 | -29.34924 | -58.71970 | 28192 ft | 462 kts | 177° |
| 2026-04-12 08:39 | -29.38131 | -58.72178 | 28241 ft | 462 kts | 192° |
| 2026-04-12 08:39 | -29.41146 | -58.73399 | 28337 ft | 461 kts | 205° |
| 2026-04-12 08:39 | -29.46881 | -58.76681 | 28448 ft | 462 kts | 207° |
| 2026-04-12 08:40 | -29.52635 | -58.80005 | 28533 ft | 463 kts | 206° |
| 2026-04-12 08:40 | -29.58428 | -58.83258 | 28634 ft | 463 kts | 206° |
| 2026-04-12 08:41 | -29.64232 | -58.86499 | 28718 ft | 464 kts | 206° |
| 2026-04-12 08:41 | -29.67200 | -58.87945 | 28725 ft | 465 kts | 195° |
| 2026-04-12 08:41 | -29.70395 | -58.88448 | 28762 ft | 466 kts | 179° |
| 2026-04-12 08:42 | -29.76862 | -58.87973 | 28871 ft | 466 kts | 175° |
| 2026-04-12 08:42 | -29.83335 | -58.87350 | 28895 ft | 467 kts | 175° |
| 2026-04-12 08:43 | -29.89824 | -58.86789 | 28969 ft | 467 kts | 176° |
| 2026-04-12 08:43 | -29.96314 | -58.86275 | 29013 ft | 468 kts | 176° |
| 2026-04-12 08:44 | -30.02777 | -58.85774 | 29068 ft | 468 kts | 176° |
| 2026-04-12 08:44 | -30.09281 | -58.85269 | 29126 ft | 469 kts | 176° |
| 2026-04-12 08:45 | -30.15799 | -58.84759 | 29162 ft | 469 kts | 176° |
| 2026-04-12 08:45 | -30.22323 | -58.84247 | 29184 ft | 470 kts | 176° |
| 2026-04-12 08:46 | -30.28845 | -58.83735 | 29239 ft | 470 kts | 176° |
| 2026-04-12 08:47 | -30.38634 | -58.82965 | 29284 ft | 470 kts | 176° |
| 2026-04-12 08:47 | -30.45122 | -58.82453 | 29315 ft | 470 kts | 176° |
| 2026-04-12 08:48 | -30.51657 | -58.81933 | 29341 ft | 471 kts | 176° |
| 2026-04-12 08:48 | -30.58197 | -58.81368 | 29365 ft | 471 kts | 176° |
| 2026-04-12 08:49 | -30.64733 | -58.80794 | 29388 ft | 471 kts | 176° |
| 2026-04-12 08:49 | -30.71277 | -58.80224 | 29408 ft | 471 kts | 176° |
| 2026-04-12 08:50 | -30.77820 | -58.79656 | 29426 ft | 471 kts | 176° |
| 2026-04-12 08:50 | -30.84314 | -58.79092 | 29521 ft | 470 kts | 176° |
| 2026-04-12 08:51 | -30.90824 | -58.78525 | 29683 ft | 467 kts | 176° |
| 2026-04-12 08:51 | -30.97264 | -58.77980 | 30363 ft | 452 kts | 176° |
| 2026-04-12 08:51 | -31.00360 | -58.77735 | 30930 ft | 441 kts | 176° |
| 2026-04-12 08:52 | -31.03420 | -58.77497 | 31157 ft | 439 kts | 176° |
| 2026-04-12 08:52 | -31.09522 | -58.77023 | 31200 ft | 445 kts | 176° |
| 2026-04-12 08:52 | -31.12590 | -58.76783 | 31624 ft | 436 kts | 176° |
| 2026-04-12 08:53 | -31.15581 | -58.76547 | 32122 ft | 428 kts | 176° |
| 2026-04-12 08:53 | -31.18547 | -58.76312 | 32269 ft | 428 kts | 176° |
| 2026-04-12 08:53 | -31.21538 | -58.76075 | 32285 ft | 432 kts | 176° |
| 2026-04-12 08:54 | -31.27562 | -58.75597 | 32411 ft | 435 kts | 176° |
| 2026-04-12 08:54 | -31.30583 | -58.75357 | 32524 ft | 435 kts | 176° |
| 2026-04-12 08:54 | -31.33607 | -58.75116 | 32633 ft | 436 kts | 176° |
| 2026-04-12 08:55 | -31.39670 | -58.74634 | 32804 ft | 437 kts | 176° |
| 2026-04-12 08:55 | -31.45753 | -58.74149 | 33029 ft | 436 kts | 176° |
| 2026-04-12 08:55 | -31.48732 | -58.73911 | 33707 ft | 421 kts | 176° |
| 2026-04-12 08:56 | -31.51633 | -58.73679 | 34045 ft | 417 kts | 176° |
| 2026-04-12 08:56 | -31.57466 | -58.73213 | 34097 ft | 423 kts | 176° |
| 2026-04-12 08:57 | -31.63364 | -58.72742 | 34276 ft | 424 kts | 176° |
| 2026-04-12 08:57 | -31.69269 | -58.72269 | 34402 ft | 427 kts | 176° |
| 2026-04-12 08:58 | -31.75218 | -58.71792 | 34544 ft | 429 kts | 176° |
| 2026-04-12 08:58 | -31.81180 | -58.71313 | 34707 ft | 430 kts | 176° |
| 2026-04-12 08:59 | -31.87118 | -58.70835 | 34836 ft | 431 kts | 176° |
| 2026-04-12 08:59 | -31.93123 | -58.70352 | 34967 ft | 432 kts | 176° |
| 2026-04-12 09:00 | -31.99137 | -58.69867 | 35088 ft | 433 kts | 176° |
| 2026-04-12 09:00 | -32.05164 | -58.69380 | 35132 ft | 434 kts | 176° |
| 2026-04-12 09:01 | -32.11193 | -58.68893 | 35138 ft | 433 kts | 176° |
| 2026-04-12 09:01 | -32.17200 | -58.68407 | 35138 ft | 433 kts | 176° |
| 2026-04-12 09:01 | -32.20223 | -58.68162 | 34901 ft | 439 kts | 176° |
| 2026-04-12 09:02 | -32.23298 | -58.67913 | 34668 ft | 444 kts | 176° |
| 2026-04-12 09:02 | -32.26352 | -58.67665 | 34430 ft | 449 kts | 176° |
| 2026-04-12 09:02 | -32.29482 | -58.67411 | 34190 ft | 453 kts | 176° |
| 2026-04-12 09:02 | -32.32638 | -58.67154 | 34044 ft | 455 kts | 176° |
| 2026-04-12 09:03 | -32.35781 | -58.66896 | 34006 ft | 454 kts | 176° |
| 2026-04-12 09:03 | -32.42058 | -58.66371 | 33930 ft | 452 kts | 176° |
| 2026-04-12 09:03 | -32.45213 | -58.66106 | 33657 ft | 455 kts | 176° |
| 2026-04-12 09:04 | -32.48357 | -58.65841 | 33408 ft | 451 kts | 176° |
| 2026-04-12 09:04 | -32.51479 | -58.65579 | 33153 ft | 447 kts | 176° |
| 2026-04-12 09:04 | -32.54570 | -58.65319 | 32902 ft | 444 kts | 176° |
| 2026-04-12 09:04 | -32.57645 | -58.65061 | 32654 ft | 443 kts | 176° |
| 2026-04-12 09:05 | -32.60719 | -58.64802 | 32404 ft | 441 kts | 176° |
| 2026-04-12 09:05 | -32.63779 | -58.64545 | 32155 ft | 440 kts | 176° |
| 2026-04-12 09:05 | -32.66826 | -58.64289 | 31906 ft | 438 kts | 176° |
| 2026-04-12 09:05 | -32.69865 | -58.64033 | 31657 ft | 437 kts | 176° |
| 2026-04-12 09:06 | -32.72894 | -58.63777 | 31407 ft | 435 kts | 176° |
| 2026-04-12 09:06 | -32.75907 | -58.63523 | 31158 ft | 434 kts | 176° |
| 2026-04-12 09:06 | -32.78910 | -58.63270 | 30908 ft | 432 kts | 176° |
| 2026-04-12 09:06 | -32.81903 | -58.63017 | 30658 ft | 430 kts | 176° |
| 2026-04-12 09:07 | -32.84879 | -58.62765 | 30407 ft | 428 kts | 176° |
| 2026-04-12 09:07 | -32.87843 | -58.62515 | 30138 ft | 425 kts | 176° |
| 2026-04-12 09:07 | -32.90767 | -58.62267 | 29760 ft | 419 kts | 176° |
| 2026-04-12 09:07 | -32.93625 | -58.62025 | 29334 ft | 414 kts | 176° |
| 2026-04-12 09:08 | -32.96478 | -58.61784 | 28887 ft | 409 kts | 176° |
| 2026-04-12 09:08 | -32.99303 | -58.61544 | 28436 ft | 405 kts | 176° |
| 2026-04-12 09:08 | -33.02097 | -58.61440 | 27982 ft | 400 kts | 183° |
| 2026-04-12 09:08 | -33.04851 | -58.61688 | 27557 ft | 395 kts | 186° |
| 2026-04-12 09:09 | -33.07578 | -58.62024 | 27115 ft | 392 kts | 186° |
| 2026-04-12 09:09 | -33.10271 | -58.62379 | 26678 ft | 388 kts | 186° |
| 2026-04-12 09:09 | -33.12947 | -58.62729 | 26245 ft | 384 kts | 186° |
| 2026-04-12 09:09 | -33.15602 | -58.63061 | 25703 ft | 383 kts | 186° |
| 2026-04-12 09:10 | -33.18256 | -58.63375 | 25153 ft | 383 kts | 186° |
| 2026-04-12 09:10 | -33.20899 | -58.63681 | 24686 ft | 380 kts | 186° |
| 2026-04-12 09:10 | -33.23517 | -58.63983 | 24257 ft | 376 kts | 186° |
| 2026-04-12 09:10 | -33.26108 | -58.64284 | 23820 ft | 372 kts | 186° |
| 2026-04-12 09:11 | -33.28677 | -58.64584 | 23305 ft | 371 kts | 186° |
| 2026-04-12 09:11 | -33.31242 | -58.64884 | 22804 ft | 369 kts | 186° |
| 2026-04-12 09:11 | -33.33791 | -58.65183 | 22360 ft | 365 kts | 186° |
| 2026-04-12 09:11 | -33.36308 | -58.65480 | 21928 ft | 362 kts | 186° |
| 2026-04-12 09:12 | -33.38799 | -58.65773 | 21504 ft | 358 kts | 186° |
| 2026-04-12 09:12 | -33.41239 | -58.66061 | 21091 ft | 354 kts | 186° |
| 2026-04-12 09:12 | -33.43713 | -58.66353 | 20673 ft | 351 kts | 186° |
| 2026-04-12 09:12 | -33.46100 | -58.66635 | 20269 ft | 347 kts | 186° |
| 2026-04-12 09:13 | -33.48486 | -58.66917 | 19866 ft | 344 kts | 186° |
| 2026-04-12 09:13 | -33.50859 | -58.67198 | 19463 ft | 340 kts | 186° |
| 2026-04-12 09:13 | -33.53205 | -58.67475 | 19063 ft | 337 kts | 186° |
| 2026-04-12 09:13 | -33.55532 | -58.67751 | 18664 ft | 334 kts | 186° |
| 2026-04-12 09:14 | -33.57833 | -58.68023 | 18270 ft | 331 kts | 186° |
| 2026-04-12 09:14 | -33.60112 | -58.68293 | 17878 ft | 328 kts | 186° |
| 2026-04-12 09:14 | -33.62371 | -58.68561 | 17487 ft | 325 kts | 186° |
| 2026-04-12 09:14 | -33.64609 | -58.68827 | 17099 ft | 322 kts | 186° |
| 2026-04-12 09:15 | -33.66828 | -58.69090 | 16713 ft | 319 kts | 186° |
| 2026-04-12 09:15 | -33.69032 | -58.69352 | 16329 ft | 316 kts | 186° |
| 2026-04-12 09:15 | -33.71214 | -58.69611 | 15946 ft | 314 kts | 186° |
| 2026-04-12 09:15 | -33.73376 | -58.69868 | 15566 ft | 311 kts | 186° |
| 2026-04-12 09:16 | -33.75498 | -58.70120 | 15191 ft | 309 kts | 186° |
| 2026-04-12 09:16 | -33.77634 | -58.70375 | 14812 ft | 306 kts | 186° |
| 2026-04-12 09:16 | -33.79743 | -58.70626 | 14436 ft | 304 kts | 186° |
| 2026-04-12 09:16 | -33.81842 | -58.70876 | 14061 ft | 301 kts | 186° |
| 2026-04-12 09:17 | -33.83922 | -58.71124 | 13688 ft | 299 kts | 186° |
| 2026-04-12 09:17 | -33.85987 | -58.71370 | 13315 ft | 297 kts | 186° |
| 2026-04-12 09:17 | -33.88031 | -58.71613 | 12944 ft | 295 kts | 186° |
| 2026-04-12 09:17 | -33.90070 | -58.71856 | 12574 ft | 293 kts | 186° |
| 2026-04-12 09:18 | -33.92093 | -58.72098 | 12205 ft | 291 kts | 186° |
| 2026-04-12 09:18 | -33.94096 | -58.72316 | 11866 ft | 288 kts | 185° |
| 2026-04-12 09:18 | -33.96084 | -58.72517 | 11502 ft | 286 kts | 185° |
| 2026-04-12 09:18 | -33.98057 | -58.72715 | 11144 ft | 284 kts | 185° |
| 2026-04-12 09:19 | -34.00018 | -58.72911 | 10788 ft | 282 kts | 185° |
| 2026-04-12 09:19 | -34.01967 | -58.73107 | 10435 ft | 280 kts | 185° |
| 2026-04-12 09:19 | -34.03251 | -58.73237 | 10202 ft | 279 kts | 185° |
| 2026-04-12 09:20 | -34.07630 | -58.73682 | 9587 ft | 268 kts | 185° |
| 2026-04-12 09:20 | -34.09484 | -58.73871 | 9263 ft | 266 kts | 185° |
| 2026-04-12 09:20 | -34.13165 | -58.74247 | 8580 ft | 264 kts | 185° |
| 2026-04-12 09:21 | -34.14373 | -58.74370 | 8361 ft | 263 kts | 185° |
| 2026-04-12 09:21 | -34.16200 | -58.74557 | 7985 ft | 264 kts | 185° |
| 2026-04-12 09:21 | -34.18059 | -58.74747 | 7437 ft | 271 kts | 185° |
| 2026-04-12 09:21 | -34.19936 | -58.74940 | 7035 ft | 271 kts | 185° |
| 2026-04-12 09:22 | -34.21810 | -58.75131 | 6693 ft | 269 kts | 185° |
| 2026-04-12 09:22 | -34.23666 | -58.75321 | 6355 ft | 267 kts | 185° |
| 2026-04-12 09:22 | -34.25519 | -58.75511 | 6007 ft | 265 kts | 185° |
| 2026-04-12 09:22 | -34.27355 | -58.75699 | 5706 ft | 262 kts | 185° |
| 2026-04-12 09:23 | -34.29133 | -58.75882 | 5610 ft | 251 kts | 185° |
| 2026-04-12 09:23 | -34.30837 | -58.76056 | 5483 ft | 242 kts | 184° |
| 2026-04-12 09:23 | -34.32445 | -58.75798 | 5319 ft | 234 kts | 155° |
| 2026-04-12 09:23 | -34.33771 | -58.74675 | 5127 ft | 229 kts | 137° |
| 2026-04-12 09:24 | -34.34883 | -58.73321 | 4864 ft | 228 kts | 134° |
| 2026-04-12 09:24 | -34.35986 | -58.71913 | 4553 ft | 229 kts | 134° |
| 2026-04-12 09:24 | -34.37075 | -58.70517 | 4326 ft | 226 kts | 134° |
| 2026-04-12 09:24 | -34.38140 | -58.69166 | 4159 ft | 224 kts | 134° |
| 2026-04-12 09:25 | -34.39222 | -58.67808 | 3998 ft | 224 kts | 134° |
| 2026-04-12 09:25 | -34.40307 | -58.66451 | 3834 ft | 224 kts | 134° |
| 2026-04-12 09:25 | -34.41394 | -58.65095 | 3672 ft | 224 kts | 134° |
| 2026-04-12 09:25 | -34.42482 | -58.63739 | 3505 ft | 225 kts | 134° |
| 2026-04-12 09:26 | -34.43570 | -58.62382 | 3334 ft | 225 kts | 134° |
| 2026-04-12 09:26 | -34.44662 | -58.61020 | 3166 ft | 225 kts | 134° |
| 2026-04-12 09:26 | -34.45736 | -58.59684 | 3023 ft | 217 kts | 134° |
| 2026-04-12 09:26 | -34.46663 | -58.58316 | 2975 ft | 203 kts | 126° |
| 2026-04-12 09:27 | -34.47428 | -58.56932 | 2797 ft | 193 kts | 124° |
| 2026-04-12 09:27 | -34.48159 | -58.55592 | 2555 ft | 187 kts | 124° |
| 2026-04-12 09:27 | -34.48873 | -58.54298 | 2301 ft | 182 kts | 124° |
| 2026-04-12 09:27 | -34.49571 | -58.53038 | 2059 ft | 177 kts | 124° |
| 2026-04-12 09:28 | -34.50246 | -58.51820 | 1841 ft | 170 kts | 124° |
| 2026-04-12 09:28 | -34.50897 | -58.50647 | 1614 ft | 166 kts | 125° |
| 2026-04-12 09:28 | -34.51535 | -58.49495 | 1395 ft | 161 kts | 125° |
| 2026-04-12 09:28 | -34.52127 | -58.48428 | 1230 ft | 147 kts | 125° |
| 2026-04-12 09:29 | -34.52674 | -58.47441 | 1006 ft | 137 kts | 125° |
| 2026-04-12 09:29 | -34.53205 | -58.46484 | 846 ft | 136 kts | 125° |
| 2026-04-12 09:29 | -34.53736 | -58.45533 | 658 ft | 138 kts | 126° |
| 2026-04-12 09:29 | -34.54267 | -58.44561 | 452 ft | 139 kts | 124° |
| 2026-04-12 09:30 | -34.54808 | -58.43587 | 262 ft | 140 kts | 125° |
| 2026-04-12 09:30 | -34.55350 | -58.42615 | 86 ft | 136 kts | 124° |
| 2026-04-12 09:30 | -34.55832 | -58.41744 | 23 ft | 101 kts | 124° |
| 2026-04-12 09:30 | -34.56102 | -58.41261 | 24 ft | 38 kts | 124° |
| 2026-04-12 09:31 | -34.56184 | -58.41096 | 26 ft | 19 kts | 117° |
| 2026-04-12 09:31 | -34.56225 | -58.40951 | 24 ft | 16 kts | 98° |
| 2026-04-12 09:31 | -34.56236 | -58.40844 | 24 ft | 9 kts | 93° |
| 2026-04-12 09:31 | -34.56237 | -58.40777 | 24 ft | 6 kts | 90° |
| 2026-04-12 09:32 | -34.56212 | -58.40764 | 24 ft | 5 kts | 313° |
| 2026-04-12 09:32 | -34.56191 | -58.40797 | 24 ft | 5 kts | 303° |
| 2026-04-12 09:32 | -34.56171 | -58.40832 | 24 ft | 5 kts | 304° |
| 2026-04-12 09:32 | -34.56143 | -58.40884 | 24 ft | 9 kts | 303° |
| 2026-04-12 09:33 | -34.56090 | -58.40946 | 24 ft | 11 kts | 316° |
| 2026-04-12 09:33 | -34.56038 | -58.41018 | 24 ft | 13 kts | 312° |
| 2026-04-12 09:33 | -34.55971 | -58.41085 | 24 ft | 12 kts | 319° |
| 2026-04-12 09:33 | -34.55917 | -58.41154 | 24 ft | 11 kts | 310° |
| 2026-04-12 09:34 | -34.55870 | -58.41224 | 24 ft | 11 kts | 305° |
| 2026-04-12 09:34 | -34.55832 | -58.41294 | 24 ft | 6 kts | 303° |
| 2026-04-12 09:34 | -34.55828 | -58.41303 | 24 ft | 1 kts | 306° |
| 2026-04-12 09:34 | -34.55823 | -58.41307 | 24 ft | 2 kts | 320° |
| 2026-04-12 09:35 | -34.55810 | -58.41309 | 24 ft | 2 kts | 3° |
| 2026-04-12 09:35 | -34.55793 | -58.41301 | 24 ft | 4 kts | 26° |
| 2026-04-12 09:35 | -34.55779 | -58.41288 | 24 ft | 0 kts | 36° |